Архив погоды в Магнитогорске

Метеограмма Магнитогорск
Суббота, 11 Июля
Время местн. Темп Ветер Видим Явления Облачность нижн/средн/верх Атм. давл. Влжн Точка росы ВНГО R Сост. почвы Tg s
Напр Скр Прв ур.ст ур.м изм
08:00 +27.5° штиль 0 - 20 км - ясно 729 761 +0.2 47% +15.1° более 2.5 км 0 Сухая (без трещин) - -
05:00 +17.8° С,С-З 1 - 20 км дымка переменная облачность 728 762 +0.1 77% +13.7° 1.5 км - - - -
02:00 +22° С 2 - 10 км - ясно 728 761 +0.5 56% +12.9° более 2.5 км - - - -
Пятница, 10 Июля
Время местн. Темп Ветер Видим Явления Облачность нижн/средн/верх Атм. давл. Влжн Точка росы ВНГО R Сост. почвы Tg s
Напр Скр Прв ур.ст ур.м изм
23:00 +24.1° С 1 - 10 км - ясно 728 760 +0.5 49% +12.7° более 2.5 км - - - -
20:00 +32.8° В 1 - 20 км - ясно 727 759 -0.2 24% +9.7° более 2.5 км 0 - - -
17:00 +35.6° В 2 - 20 км - ясно 728 759 -0.6 17% +6.6° более 2.5 км - - - -
14:00 +34° С-В 3 - 20 км - ясно 728 760 -0.5 19% +7° более 2.5 км - - - -
11:00 +32.4° В 2 - 20 км - ясно 729 760 -0.2 23% +8.9° более 2.5 км - - - -
08:00 +26° Ю-В 1 - 20 км - ясно 729 761 +0.1 49% +14.4° более 2.5 км 0 Сухая (без трещин) - -
05:00 +16.3° С 1 - 20 км - ясно 729 762 +0.1 77% +12.2° более 2.5 км - - - -
02:00 +16.9° С 2 - 10 км - ясно 729 762 0 73% +12.1° более 2.5 км - - - -
Четверг, 9 Июля
Время местн. Темп Ветер Видим Явления Облачность нижн/средн/верх Атм. давл. Влжн Точка росы ВНГО R Сост. почвы Tg s
Напр Скр Прв ур.ст ур.м изм
23:00 +23° С 2 - 10 км - ясно 729 761 +0.2 50% +11.9° более 2.5 км - - - -
20:00 +29.8° В 2 - 20 км - ясно 728 760 -0.9 29% +10.1° более 2.5 км 0 - - -
17:00 +32.5° В 3 - 20 км - переменная облачность 729 761 -0.8 22% +8.3° 1 км - - - -
14:00 +31.1° С-В 2 - 20 км - переменная облачность 730 762 -0.7 26% +9.2° 1 км - - - -
11:00 +29.4° В,С-В 2 - 20 км - переменная облачность 731 763 -0.3 32% +10.8° 1 км - - - -
08:00 +24.1° В 1 - 20 км - переменная облачность 731 764 +0.2 50% +13.1° 1 км 0 Сухая (без трещин) - -
05:00 +19.2° С,С-В 3 - 20 км - переменная облачность 731 764 +0.3 66% +12.7° 1 км - - - -
02:00 +19.5° С 3 - 10 км - переменная облачность 731 764 +0.2 65% +12.8° - - - - -
Среда, 8 Июля
Время местн. Темп Ветер Видим Явления Облачность нижн/средн/верх Атм. давл. Влжн Точка росы ВНГО R Сост. почвы Tg s
Напр Скр Прв ур.ст ур.м изм
23:00 +21° С,С-В 3 - 10 км - ясно 730 763 +0.6 65% +14.1° более 2.5 км - - - -
20:00 +29.1° В 3 - 20 км - переменная облачность 730 762 +0.1 34% +11.5° 1 км 0 - - -
17:00 +32° В 3 - 20 км - переменная облачность 730 762 -0.5 25% +9.8° 1 км - - - -
14:00 +30.5° С,С-В 3 - 20 км - переменная облачность 730 762 -0.2 31% +11.7° 1 км - - - -
11:00 +28.8° В 2 - 20 км - переменная облачность 730 763 +0.4 38% +13° 1 км - - - -
08:00 +24.3° В 1 - 20 км - ясно 730 763 +0.8 61% +16.2° более 2.5 км 3 Влажная (без луж) - -
05:00 +16.1° С 1 - 4 км дымка ясно 729 763 +0.8 88% +14.2° более 2.5 км - - - -